Thunder radar more information blitzortung!


Rain radar  rain snow radar



Det er et kommunikasjonsproblem . Gå direkte til Meteoalarm sin side: www.meteoalarm.eu og sjekk væradvarsler der .

Nearby METAR Reports

   
ENZV - Stavanger
Oppdatert: Aug 8 2022 6:20 pm
Delvis overskyet  
Delvis overskyet  
   Vind: VNV 3.6 m/s
Vind: VNV 3.6 m/s
Temperatur: 17°C
Duggpunkt: 12°C
Luftfuktighet: 73%
Barometer: 1026 hPa
Skyer: Partly Cloudy
Sikt: More than 10 km
Detaljer skyer: Delvis overskyet 4500 ft
ENZV 081620Z 30007KT 9999 SCT045 17/12 Q1026
ENCN - Kristiansand
Oppdatert: Aug 8 2022 6:20 pm
Klart  
Klart  
   Vind: SSØ 3.6 m/s
Vind: SSØ 3.6 m/s
Temperatur: 21°C
Duggpunkt: 12°C
Luftfuktighet: 57%
Barometer: 1023 hPa
Sikt: More than 10 km
Detaljer skyer: Klart ft
ENCN 081620Z 16007KT CAVOK 21/12 Q1023
ENBR - Bergen
Oppdatert: Aug 8 2022 6:20 pm
For det meste Overskyet  
For det meste Overskyet  
   Vind: Sør 3.6 m/s
Vind: Sør 3.6 m/s
Temperatur: 15°C
Duggpunkt: 11°C
Luftfuktighet: 77%
Barometer: 1026 hPa
Skyer: Mostly Cloudy
Sikt: More than 10 km
Detaljer skyer: Noen skyer 2000 ft,
For det meste Overskyet 3000 ft
ENBR 081620Z 18007KT 9999 FEW020 BKN030 15/11 Q1026 NOSIG RMK WIND 1200FT 20005KT
ENGM - Oslo
Oppdatert: Aug 8 2022 6:20 pm
Klart  
Klart  
   Vind: Sør 4.1 m/s
Vind: Sør 4.1 m/s
Temperatur: 21°C
Duggpunkt: 10°C
Luftfuktighet: 50%
Barometer: 1023 hPa
Sikt: More than 10 km
Detaljer skyer: Klart ft
ENGM 081620Z 19008KT 140V220 CAVOK 21/10 Q1023 NOSIG
ENVA - Trondheim
Oppdatert: Aug 8 2022 6:20 pm
Klart  
Klart  
   Vind: VEST 5.1 m/s
Vind: VEST 5.1 m/s
Temperatur: 21°C
Duggpunkt: 12°C
Luftfuktighet: 57%
Barometer: 1022 hPa
Sikt: More than 10 km
Detaljer skyer: Klart ft
ENVA 081620Z 28010KT CAVOK 21/12 Q1022 NOSIG RMK WIND 670FT 30011KT
ENTC - Tromsø
Oppdatert: Aug 8 2022 6:20 pm
Lokale byger, For det meste Overskyet  
Lokale byger, For det meste Overskyet  
   Vind: VNV 2.6 m/s
Vind: VNV 2.6 m/s
Temperatur: 11°C
Duggpunkt: 8°C
Luftfuktighet: 82%
Barometer: 1021 hPa
Skyer: Mostly Cloudy
Sikt: More than 10 km
Detaljer skyer: Noen skyer 1600 ft,
Delvis overskyet 3300 ft,
For det meste Overskyet 4800 ft
ENTC 081620Z 30005KT 270V350 9999 VCSH FEW016 SCT033 BKN048 11/08 Q1021 REDZ NOSIG RMK WIND 2600FT 23008KT

Script utviklet av  Saratoga-weather.org Tilpasset for tamplaten av  Weerstation Leuven

Du finner vår vær info også på:

European Weather Network

WeatherCloud

Weather Underground

AWEKAS

HAMweather, WeatherForYou, PWS Weather

Utrustning vi bruker:

vær-station
Davis VP2

vær-programmet
Weather Display

Davis VP2

Weather Display